sensor_id;sensor_type;location;lat;lon;timestamp;pressure;altitude;pressure_sealevel;temperature;humidity
71697;BME280;68167;59.120;37.898;2023-03-14T00:01:20;99265.50;;;-6.48;63.06
71697;BME280;68167;59.120;37.898;2023-03-14T00:03:46;99254.19;;;-6.55;64.17
71697;BME280;68167;59.120;37.898;2023-03-14T00:06:13;99240.94;;;-6.60;63.86
71697;BME280;68167;59.120;37.898;2023-03-14T00:08:40;99205.31;;;-6.91;63.58
71697;BME280;68167;59.120;37.898;2023-03-14T00:11:09;99204.97;;;-6.88;63.71
71697;BME280;68167;59.120;37.898;2023-03-14T00:13:36;99249.19;;;-6.57;63.46
71697;BME280;68167;59.120;37.898;2023-03-14T00:16:08;99223.13;;;-6.63;63.84
71697;BME280;68167;59.120;37.898;2023-03-14T00:18:35;99236.88;;;-6.63;64.51
71697;BME280;68167;59.120;37.898;2023-03-14T00:21:03;99249.81;;;-6.55;64.50
71697;BME280;68167;59.120;37.898;2023-03-14T00:23:32;99207.09;;;-6.83;64.16
71697;BME280;68167;59.120;37.898;2023-03-14T00:26:04;99249.34;;;-6.58;64.75
71697;BME280;68167;59.120;37.898;2023-03-14T00:28:31;99248.03;;;-6.54;64.87
71697;BME280;68167;59.120;37.898;2023-03-14T00:30:58;99213.09;;;-6.75;64.50
71697;BME280;68167;59.120;37.898;2023-03-14T00:33:24;99161.31;;;-6.99;65.10
71697;BME280;68167;59.120;37.898;2023-03-14T00:35:56;99194.16;;;-6.83;64.28
71697;BME280;68167;59.120;37.898;2023-03-14T00:38:23;99229.09;;;-6.47;64.67
71697;BME280;68167;59.120;37.898;2023-03-14T00:40:51;99214.41;;;-6.54;64.53
71697;BME280;68167;59.120;37.898;2023-03-14T00:43:18;99176.38;;;-6.78;65.28
71697;BME280;68167;59.120;37.898;2023-03-14T00:45:49;99174.75;;;-6.79;65.71
71697;BME280;68167;59.120;37.898;2023-03-14T00:48:16;99213.91;;;-6.50;64.93
71697;BME280;68167;59.120;37.898;2023-03-14T00:50:43;99214.88;;;-6.43;65.01
71697;BME280;68167;59.120;37.898;2023-03-14T00:53:10;99215.19;;;-6.46;64.54
71697;BME280;68167;59.120;37.898;2023-03-14T00:55:38;99191.91;;;-6.62;65.15
71697;BME280;68167;59.120;37.898;2023-03-14T00:58:05;99187.06;;;-6.57;64.94
71697;BME280;68167;59.120;37.898;2023-03-14T01:00:32;99160.06;;;-6.71;65.52
71697;BME280;68167;59.120;37.898;2023-03-14T01:03:00;99147.13;;;-6.79;64.62
71697;BME280;68167;59.120;37.898;2023-03-14T01:05:27;99151.81;;;-6.74;65.38
71697;BME280;68167;59.120;37.898;2023-03-14T01:07:54;99068.41;;;-7.17;64.81
71697;BME280;68167;59.120;37.898;2023-03-14T01:10:20;99132.56;;;-6.72;65.08
71697;BME280;68167;59.120;37.898;2023-03-14T01:12:47;99070.16;;;-7.01;64.91
71697;BME280;68167;59.120;37.898;2023-03-14T01:15:14;99130.31;;;-6.67;65.49
71697;BME280;68167;59.120;37.898;2023-03-14T01:17:41;99157.59;;;-6.40;65.37
71697;BME280;68167;59.120;37.898;2023-03-14T01:20:10;99145.13;;;-6.44;65.08
71697;BME280;68167;59.120;37.898;2023-03-14T01:22:39;99095.06;;;-6.68;65.60
71697;BME280;68167;59.120;37.898;2023-03-14T01:25:07;99085.50;;;-6.67;65.04
71697;BME280;68167;59.120;37.898;2023-03-14T01:27:34;99118.78;;;-6.48;65.01
71697;BME280;68167;59.120;37.898;2023-03-14T01:30:02;99074.69;;;-6.71;65.03
71697;BME280;68167;59.120;37.898;2023-03-14T01:32:30;99105.56;;;-6.53;64.98
71697;BME280;68167;59.120;37.898;2023-03-14T01:34:57;99093.59;;;-6.62;64.58
71697;BME280;68167;59.120;37.898;2023-03-14T01:37:23;99014.09;;;-7.09;65.00
71697;BME280;68167;59.120;37.898;2023-03-14T01:39:50;99098.13;;;-6.56;64.77
71697;BME280;68167;59.120;37.898;2023-03-14T01:42:18;99105.88;;;-6.56;65.47
71697;BME280;68167;59.120;37.898;2023-03-14T01:44:56;99090.53;;;-6.57;64.73
71697;BME280;68167;59.120;37.898;2023-03-14T01:47:23;99026.53;;;-6.88;65.06
71697;BME280;68167;59.120;37.898;2023-03-14T01:49:56;99040.56;;;-6.66;65.38
71697;BME280;68167;59.120;37.898;2023-03-14T01:55:06;99040.53;;;-6.58;64.96
71697;BME280;68167;59.120;37.898;2023-03-14T01:57:40;99036.19;;;-6.57;65.15
71697;BME280;68167;59.120;37.898;2023-03-14T02:00:14;99044.53;;;-6.47;65.83
71697;BME280;68167;59.120;37.898;2023-03-14T02:02:45;99018.69;;;-6.55;65.10
71697;BME280;68167;59.120;37.898;2023-03-14T02:05:17;99014.28;;;-6.47;65.11
71697;BME280;68167;59.120;37.898;2023-03-14T02:07:54;98988.47;;;-6.55;65.20
71697;BME280;68167;59.120;37.898;2023-03-14T02:10:34;98950.34;;;-6.69;65.42
71697;BME280;68167;59.120;37.898;2023-03-14T02:13:04;98999.06;;;-6.42;65.43
71697;BME280;68167;59.120;37.898;2023-03-14T02:15:38;99005.66;;;-6.31;65.12
71697;BME280;68167;59.120;37.898;2023-03-14T02:18:17;98992.53;;;-6.29;65.40
71697;BME280;68167;59.120;37.898;2023-03-14T02:21:53;98926.56;;;-6.65;65.38
71697;BME280;68167;59.120;37.898;2023-03-14T02:27:16;98911.56;;;-6.46;65.45
71697;BME280;68167;59.120;37.898;2023-03-14T02:29:58;98906.06;;;-6.43;65.72
71697;BME280;68167;59.120;37.898;2023-03-14T02:32:30;98887.63;;;-6.48;66.03
71697;BME280;68167;59.120;37.898;2023-03-14T02:35:00;98847.31;;;-6.66;65.10
71697;BME280;68167;59.120;37.898;2023-03-14T02:37:55;98934.13;;;-6.01;65.44
71697;BME280;68167;59.120;37.898;2023-03-14T02:40:24;98895.78;;;-6.28;65.67
71697;BME280;68167;59.120;37.898;2023-03-14T02:42:52;98889.59;;;-6.19;65.99
71697;BME280;68167;59.120;37.898;2023-03-14T02:47:53;98906.06;;;-5.89;65.15
71697;BME280;68167;59.120;37.898;2023-03-14T02:50:25;98850.69;;;-6.11;65.85
71697;BME280;68167;59.120;37.898;2023-03-14T02:52:54;98873.88;;;-5.80;65.60
71697;BME280;68167;59.120;37.898;2023-03-14T02:55:24;98839.88;;;-5.92;65.54
71697;BME280;68167;59.120;37.898;2023-03-14T02:57:55;98714.25;;;-6.48;65.94
71697;BME280;68167;59.120;37.898;2023-03-14T03:00:21;98802.06;;;-5.86;65.47
71697;BME280;68167;59.120;37.898;2023-03-14T03:02:47;98829.06;;;-5.51;65.70
71697;BME280;68167;59.120;37.898;2023-03-14T03:05:14;98816.38;;;-5.46;65.78
71697;BME280;68167;59.120;37.898;2023-03-14T03:07:41;98793.78;;;-5.38;65.70
71697;BME280;68167;59.120;37.898;2023-03-14T03:10:07;98703.00;;;-5.88;65.73
71697;BME280;68167;59.120;37.898;2023-03-14T03:12:34;98782.41;;;-5.22;65.98
71697;BME280;68167;59.120;37.898;2023-03-14T03:15:00;98749.97;;;-5.33;66.22
71697;BME280;68167;59.120;37.898;2023-03-14T03:17:27;98726.81;;;-5.34;65.87
71697;BME280;68167;59.120;37.898;2023-03-14T03:19:53;98711.53;;;-5.44;66.02
71697;BME280;68167;59.120;37.898;2023-03-14T03:22:19;98784.78;;;-4.91;66.04
71697;BME280;68167;59.120;37.898;2023-03-14T03:24:46;98724.06;;;-5.11;65.67
71697;BME280;68167;59.120;37.898;2023-03-14T03:27:12;98739.56;;;-4.82;65.67
71697;BME280;68167;59.120;37.898;2023-03-14T03:29:38;98764.47;;;-4.66;65.52
71697;BME280;68167;59.120;37.898;2023-03-14T03:32:05;98736.75;;;-4.66;65.58
71697;BME280;68167;59.120;37.898;2023-03-14T03:34:31;98669.13;;;-5.00;65.55
71697;BME280;68167;59.120;37.898;2023-03-14T03:36:57;98716.88;;;-4.52;65.91
71697;BME280;68167;59.120;37.898;2023-03-14T03:39:25;98718.97;;;-4.41;66.67
71697;BME280;68167;59.120;37.898;2023-03-14T03:41:51;98707.16;;;-4.43;67.17
71697;BME280;68167;59.120;37.898;2023-03-14T03:44:18;98700.41;;;-4.38;67.07
71697;BME280;68167;59.120;37.898;2023-03-14T03:46:44;98676.63;;;-4.41;66.73
71697;BME280;68167;59.120;37.898;2023-03-14T03:49:11;98650.34;;;-4.53;67.08
71697;BME280;68167;59.120;37.898;2023-03-14T03:51:39;98677.09;;;-4.31;67.21
71697;BME280;68167;59.120;37.898;2023-03-14T03:54:06;98670.91;;;-4.30;66.89
71697;BME280;68167;59.120;37.898;2023-03-14T03:56:33;98661.75;;;-4.26;67.25
71697;BME280;68167;59.120;37.898;2023-03-14T03:59:00;98661.41;;;-4.16;67.13
71697;BME280;68167;59.120;37.898;2023-03-14T04:01:26;98654.19;;;-4.21;66.99
71697;BME280;68167;59.120;37.898;2023-03-14T04:03:56;98658.63;;;-4.15;68.49
71697;BME280;68167;59.120;37.898;2023-03-14T04:06:23;98603.88;;;-4.48;68.63
71697;BME280;68167;59.120;37.898;2023-03-14T04:08:53;98588.25;;;-4.54;69.63
71697;BME280;68167;59.120;37.898;2023-03-14T04:11:46;98633.38;;;-4.27;68.96
71697;BME280;68167;59.120;37.898;2023-03-14T04:14:22;98618.34;;;-4.32;68.75
71697;BME280;68167;59.120;37.898;2023-03-14T04:16:58;98595.31;;;-4.42;68.75
71697;BME280;68167;59.120;37.898;2023-03-14T04:19:24;98596.31;;;-4.43;69.53
71697;BME280;68167;59.120;37.898;2023-03-14T04:21:54;98498.19;;;-5.16;69.60
71697;BME280;68167;59.120;37.898;2023-03-14T04:24:22;98546.28;;;-4.65;69.56
71697;BME280;68167;59.120;37.898;2023-03-14T04:26:49;98524.09;;;-4.67;69.88
71697;BME280;68167;59.120;37.898;2023-03-14T04:29:15;98515.22;;;-4.45;69.25
71697;BME280;68167;59.120;37.898;2023-03-14T04:31:44;98479.19;;;-4.61;70.57
71697;BME280;68167;59.120;37.898;2023-03-14T04:34:11;98516.25;;;-4.39;71.59
71697;BME280;68167;59.120;37.898;2023-03-14T04:36:43;98513.28;;;-4.29;71.22
71697;BME280;68167;59.120;37.898;2023-03-14T04:39:15;98505.34;;;-4.21;71.13
71697;BME280;68167;59.120;37.898;2023-03-14T04:41:49;98457.25;;;-4.52;70.69
71697;BME280;68167;59.120;37.898;2023-03-14T04:44:16;98424.72;;;-4.48;71.57
71697;BME280;68167;59.120;37.898;2023-03-14T04:46:43;98480.19;;;-4.14;71.45
71697;BME280;68167;59.120;37.898;2023-03-14T04:49:11;98464.63;;;-4.08;71.12
71697;BME280;68167;59.120;37.898;2023-03-14T04:51:38;98444.66;;;-4.07;71.44
71697;BME280;68167;59.120;37.898;2023-03-14T04:54:04;98459.25;;;-4.00;71.91
71697;BME280;68167;59.120;37.898;2023-03-14T04:56:31;98450.03;;;-4.09;71.44
71697;BME280;68167;59.120;37.898;2023-03-14T04:58:57;98466.63;;;-4.03;71.81
71697;BME280;68167;59.120;37.898;2023-03-14T05:01:23;98467.25;;;-3.94;72.07
71697;BME280;68167;59.120;37.898;2023-03-14T05:04:21;98444.84;;;-4.09;73.01
71697;BME280;68167;59.120;37.898;2023-03-14T05:07:16;98454.41;;;-4.16;73.49
71697;BME280;68167;59.120;37.898;2023-03-14T05:10:09;98431.63;;;-4.20;73.38
71697;BME280;68167;59.120;37.898;2023-03-14T05:12:42;98480.84;;;-3.99;74.57
71697;BME280;68167;59.120;37.898;2023-03-14T05:15:39;98467.47;;;-3.96;74.52
71697;BME280;68167;59.120;37.898;2023-03-14T05:18:18;98463.06;;;-3.95;74.72
71697;BME280;68167;59.120;37.898;2023-03-14T05:21:03;98464.06;;;-3.96;75.02
71697;BME280;68167;59.120;37.898;2023-03-14T05:23:48;98435.09;;;-3.93;74.99
71697;BME280;68167;59.120;37.898;2023-03-14T05:26:34;98435.88;;;-3.93;75.59
71697;BME280;68167;59.120;37.898;2023-03-14T05:29:23;98416.84;;;-4.13;75.25
71697;BME280;68167;59.120;37.898;2023-03-14T05:32:17;98455.28;;;-3.82;75.54
71697;BME280;68167;59.120;37.898;2023-03-14T05:35:16;98405.91;;;-3.82;75.20
71697;BME280;68167;59.120;37.898;2023-03-14T05:38:08;98380.50;;;-4.00;74.72
71697;BME280;68167;59.120;37.898;2023-03-14T05:40:52;98390.31;;;-3.82;75.30
71697;BME280;68167;59.120;37.898;2023-03-14T05:43:41;98383.09;;;-3.80;74.91
71697;BME280;68167;59.120;37.898;2023-03-14T05:46:21;98413.50;;;-3.54;75.50
71697;BME280;68167;59.120;37.898;2023-03-14T05:48:54;98359.91;;;-3.69;75.58
71697;BME280;68167;59.120;37.898;2023-03-14T05:51:46;98306.38;;;-3.96;74.74
71697;BME280;68167;59.120;37.898;2023-03-14T05:54:25;98369.69;;;-3.38;75.22
71697;BME280;68167;59.120;37.898;2023-03-14T05:57:04;98371.50;;;-3.32;74.88
71697;BME280;68167;59.120;37.898;2023-03-14T05:59:49;98307.53;;;-3.79;74.55
71697;BME280;68167;59.120;37.898;2023-03-14T06:02:34;98384.09;;;-3.28;74.75
71697;BME280;68167;59.120;37.898;2023-03-14T06:05:08;98382.84;;;-3.19;74.96
71697;BME280;68167;59.120;37.898;2023-03-14T06:07:35;98363.69;;;-3.32;75.04
71697;BME280;68167;59.120;37.898;2023-03-14T06:10:05;98360.28;;;-3.32;75.05
71697;BME280;68167;59.120;37.898;2023-03-14T06:12:32;98366.28;;;-3.25;75.24
71697;BME280;68167;59.120;37.898;2023-03-14T06:14:58;98386.25;;;-3.12;75.79
71697;BME280;68167;59.120;37.898;2023-03-14T06:17:24;98328.09;;;-3.38;75.79
71697;BME280;68167;59.120;37.898;2023-03-14T06:19:59;98387.63;;;-3.10;76.31
71697;BME280;68167;59.120;37.898;2023-03-14T06:22:26;98341.50;;;-3.34;76.07
71697;BME280;68167;59.120;37.898;2023-03-14T06:24:56;98318.50;;;-3.44;76.33
71697;BME280;68167;59.120;37.898;2023-03-14T06:27:23;98383.63;;;-2.99;76.23
71697;BME280;68167;59.120;37.898;2023-03-14T06:29:53;98357.38;;;-2.97;76.59
71697;BME280;68167;59.120;37.898;2023-03-14T06:32:20;98373.19;;;-2.92;78.14
71697;BME280;68167;59.120;37.898;2023-03-14T06:34:52;98329.81;;;-3.12;78.32
71697;BME280;68167;59.120;37.898;2023-03-14T06:37:19;98309.78;;;-3.11;78.37
71697;BME280;68167;59.120;37.898;2023-03-14T06:39:47;98335.53;;;-2.90;78.60
71697;BME280;68167;59.120;37.898;2023-03-14T06:42:23;98353.53;;;-2.82;78.26
71697;BME280;68167;59.120;37.898;2023-03-14T06:44:50;98298.75;;;-3.07;78.41
71697;BME280;68167;59.120;37.898;2023-03-14T06:47:16;98283.34;;;-3.08;78.58
71697;BME280;68167;59.120;37.898;2023-03-14T06:49:45;98348.47;;;-2.63;78.85
71697;BME280;68167;59.120;37.898;2023-03-14T06:52:12;98339.38;;;-2.54;78.58
71697;BME280;68167;59.120;37.898;2023-03-14T06:54:38;98322.53;;;-2.52;78.50
71697;BME280;68167;59.120;37.898;2023-03-14T06:57:05;98294.63;;;-2.76;78.47
71697;BME280;68167;59.120;37.898;2023-03-14T06:59:31;98306.03;;;-2.71;79.45
71697;BME280;68167;59.120;37.898;2023-03-14T07:01:58;98316.28;;;-2.44;79.50
71697;BME280;68167;59.120;37.898;2023-03-14T07:04:24;98280.53;;;-2.62;80.65
71697;BME280;68167;59.120;37.898;2023-03-14T07:06:50;98275.34;;;-2.62;81.18
71697;BME280;68167;59.120;37.898;2023-03-14T07:09:17;98309.19;;;-2.30;81.11
71697;BME280;68167;59.120;37.898;2023-03-14T07:11:49;98188.41;;;-2.92;81.16
71697;BME280;68167;59.120;37.898;2023-03-14T07:14:17;98303.59;;;-2.03;81.38
71697;BME280;68167;59.120;37.898;2023-03-14T07:16:43;98247.19;;;-2.22;81.79
71697;BME280;68167;59.120;37.898;2023-03-14T07:19:11;98258.75;;;-2.11;81.16
71697;BME280;68167;59.120;37.898;2023-03-14T07:21:38;98235.72;;;-2.14;80.78
71697;BME280;68167;59.120;37.898;2023-03-14T07:24:08;98252.84;;;-2.00;80.73
71697;BME280;68167;59.120;37.898;2023-03-14T07:26:34;98239.16;;;-1.95;80.57
71697;BME280;68167;59.120;37.898;2023-03-14T07:29:01;98276.34;;;-1.63;80.53
71697;BME280;68167;59.120;37.898;2023-03-14T07:31:30;98259.84;;;-1.57;80.34
71697;BME280;68167;59.120;37.898;2023-03-14T07:33:56;98263.91;;;-1.43;80.45
71697;BME280;68167;59.120;37.898;2023-03-14T07:36:24;98218.38;;;-1.66;80.18
71697;BME280;68167;59.120;37.898;2023-03-14T07:38:50;98259.91;;;-1.27;80.10
71697;BME280;68167;59.120;37.898;2023-03-14T07:41:49;98226.44;;;-1.49;79.59
71697;BME280;68167;59.120;37.898;2023-03-14T07:44:39;98247.72;;;-1.15;79.96
71697;BME280;68167;59.120;37.898;2023-03-14T07:47:05;98261.56;;;-0.96;79.89
71697;BME280;68167;59.120;37.898;2023-03-14T07:49:32;98252.84;;;-0.90;79.38
71697;BME280;68167;59.120;37.898;2023-03-14T07:51:58;98226.09;;;-1.04;79.04
71697;BME280;68167;59.120;37.898;2023-03-14T07:54:25;98248.41;;;-0.90;78.96
71697;BME280;68167;59.120;37.898;2023-03-14T07:56:51;98241.38;;;-0.89;78.55
71697;BME280;68167;59.120;37.898;2023-03-14T07:59:18;98249.69;;;-0.81;78.53
71697;BME280;68167;59.120;37.898;2023-03-14T08:01:45;98182.72;;;-1.05;78.74
71697;BME280;68167;59.120;37.898;2023-03-14T08:04:11;98196.63;;;-0.93;78.95
71697;BME280;68167;59.120;37.898;2023-03-14T08:06:38;98233.41;;;-0.53;78.77
71697;BME280;68167;59.120;37.898;2023-03-14T08:09:04;98233.44;;;-0.41;78.79
71697;BME280;68167;59.120;37.898;2023-03-14T08:11:30;98242.44;;;-0.37;78.42
71697;BME280;68167;59.120;37.898;2023-03-14T08:13:57;98232.91;;;-0.31;78.45
71697;BME280;68167;59.120;37.898;2023-03-14T08:16:23;98214.00;;;-0.45;78.17
71697;BME280;68167;59.120;37.898;2023-03-14T08:18:50;98226.53;;;-0.36;77.86
71697;BME280;68167;59.120;37.898;2023-03-14T08:21:16;98170.72;;;-0.53;77.96
71697;BME280;68167;59.120;37.898;2023-03-14T08:23:43;98193.00;;;-0.39;77.75
71697;BME280;68167;59.120;37.898;2023-03-14T08:26:09;98202.31;;;-0.31;77.34
71697;BME280;68167;59.120;37.898;2023-03-14T08:28:35;98204.38;;;-0.33;77.40
71697;BME280;68167;59.120;37.898;2023-03-14T08:31:02;98222.44;;;-0.31;76.93
71697;BME280;68167;59.120;37.898;2023-03-14T08:33:29;98200.94;;;-0.45;77.06
71697;BME280;68167;59.120;37.898;2023-03-14T08:36:02;98041.91;;;-1.42;76.94
71697;BME280;68167;59.120;37.898;2023-03-14T08:38:28;98208.94;;;-0.28;77.43
71697;BME280;68167;59.120;37.898;2023-03-14T08:41:12;98189.72;;;-0.34;76.89
71697;BME280;68167;59.120;37.898;2023-03-14T08:44:27;98166.72;;;-0.55;76.80
71697;BME280;68167;59.120;37.898;2023-03-14T08:47:01;98139.56;;;-0.78;76.82
71697;BME280;68167;59.120;37.898;2023-03-14T08:49:28;98228.50;;;-0.19;76.73
71697;BME280;68167;59.120;37.898;2023-03-14T08:51:54;98174.91;;;-0.52;77.18
71697;BME280;68167;59.120;37.898;2023-03-14T08:54:24;98159.09;;;-0.57;77.27
71697;BME280;68167;59.120;37.898;2023-03-14T08:56:56;98171.41;;;-0.34;77.31
71697;BME280;68167;59.120;37.898;2023-03-14T08:59:24;98209.84;;;0.00;77.11
71697;BME280;68167;59.120;37.898;2023-03-14T09:01:50;98197.91;;;0.05;77.35
71697;BME280;68167;59.120;37.898;2023-03-14T09:04:16;98231.56;;;0.24;77.01
71697;BME280;68167;59.120;37.898;2023-03-14T09:06:43;98204.03;;;0.22;77.06
71697;BME280;68167;59.120;37.898;2023-03-14T09:09:09;98194.94;;;0.24;76.98
71697;BME280;68167;59.120;37.898;2023-03-14T09:11:35;98170.13;;;0.15;76.82
71697;BME280;68167;59.120;37.898;2023-03-14T09:14:02;98189.69;;;0.36;77.36
71697;BME280;68167;59.120;37.898;2023-03-14T09:16:28;98177.06;;;0.33;77.15
71697;BME280;68167;59.120;37.898;2023-03-14T09:18:54;98173.28;;;0.41;77.34
71697;BME280;68167;59.120;37.898;2023-03-14T09:21:23;98123.28;;;0.14;77.34
71697;BME280;68167;59.120;37.898;2023-03-14T09:23:49;98137.25;;;0.31;76.85
71697;BME280;68167;59.120;37.898;2023-03-14T09:26:15;98169.50;;;0.60;76.96
71697;BME280;68167;59.120;37.898;2023-03-14T09:28:42;98171.72;;;0.68;77.25
71697;BME280;68167;59.120;37.898;2023-03-14T09:31:10;98190.44;;;0.88;77.47
71697;BME280;68167;59.120;37.898;2023-03-14T09:33:37;98128.47;;;0.65;77.59
71697;BME280;68167;59.120;37.898;2023-03-14T09:36:05;98134.84;;;0.70;76.81
71697;BME280;68167;59.120;37.898;2023-03-14T09:38:31;98123.56;;;0.69;77.13
71697;BME280;68167;59.120;37.898;2023-03-14T09:41:03;98177.41;;;1.05;77.04
71697;BME280;68167;59.120;37.898;2023-03-14T09:43:36;98178.53;;;1.09;76.91
71697;BME280;68167;59.120;37.898;2023-03-14T09:46:02;98164.38;;;1.10;77.20
71697;BME280;68167;59.120;37.898;2023-03-14T09:48:32;98135.63;;;0.98;76.98
71697;BME280;68167;59.120;37.898;2023-03-14T09:51:06;98157.78;;;1.08;77.31
71697;BME280;68167;59.120;37.898;2023-03-14T09:53:44;98155.69;;;1.21;76.89
71697;BME280;68167;59.120;37.898;2023-03-14T09:56:17;98179.50;;;1.37;76.89
71697;BME280;68167;59.120;37.898;2023-03-14T09:58:50;98118.03;;;1.11;77.63
71697;BME280;68167;59.120;37.898;2023-03-14T10:01:22;98147.56;;;1.56;77.09
71697;BME280;68167;59.120;37.898;2023-03-14T10:03:49;98008.78;;;0.61;77.01
71697;BME280;68167;59.120;37.898;2023-03-14T10:06:18;98159.72;;;1.62;76.95
71697;BME280;68167;59.120;37.898;2023-03-14T10:08:45;98155.28;;;1.63;77.06
71697;BME280;68167;59.120;37.898;2023-03-14T10:11:14;98160.03;;;1.49;76.91
71697;BME280;68167;59.120;37.898;2023-03-14T10:14:04;98188.41;;;1.69;76.44
71697;BME280;68167;59.120;37.898;2023-03-14T10:16:33;98145.03;;;1.28;76.95
71697;BME280;68167;59.120;37.898;2023-03-14T10:19:06;98181.75;;;1.61;76.88
71697;BME280;68167;59.120;37.898;2023-03-14T10:21:39;98199.16;;;1.68;77.16
71697;BME280;68167;59.120;37.898;2023-03-14T10:24:26;98142.47;;;1.33;77.33
71697;BME280;68167;59.120;37.898;2023-03-14T10:27:05;98160.44;;;1.41;77.04
71697;BME280;68167;59.120;37.898;2023-03-14T10:29:33;98203.03;;;1.65;77.30
71697;BME280;68167;59.120;37.898;2023-03-14T10:32:03;98197.25;;;1.63;77.30
71697;BME280;68167;59.120;37.898;2023-03-14T10:34:32;98187.00;;;1.61;77.13
71697;BME280;68167;59.120;37.898;2023-03-14T10:37:17;98121.28;;;1.35;77.44
71697;BME280;68167;59.120;37.898;2023-03-14T10:39:49;98079.44;;;1.06;77.12
71697;BME280;68167;59.120;37.898;2023-03-14T10:44:43;98177.94;;;1.86;77.97
71697;BME280;68167;59.120;37.898;2023-03-14T10:47:17;98180.06;;;1.89;77.96
71697;BME280;68167;59.120;37.898;2023-03-14T10:49:45;98190.13;;;1.97;77.79
71697;BME280;68167;59.120;37.898;2023-03-14T10:52:26;98205.94;;;2.02;78.12
71697;BME280;68167;59.120;37.898;2023-03-14T10:55:02;98193.69;;;2.08;77.70
71697;BME280;68167;59.120;37.898;2023-03-14T10:57:29;98154.16;;;1.92;77.99
71697;BME280;68167;59.120;37.898;2023-03-14T10:59:56;98182.38;;;2.24;77.56
71697;BME280;68167;59.120;37.898;2023-03-14T11:07:44;98153.56;;;2.29;77.97
71697;BME280;68167;59.120;37.898;2023-03-14T11:16:21;98184.84;;;2.52;77.38
71697;BME280;68167;59.120;37.898;2023-03-14T11:19:07;98154.50;;;2.40;77.40
71697;BME280;68167;59.120;37.898;2023-03-14T11:21:59;98172.75;;;2.51;77.50
71697;BME280;68167;59.120;37.898;2023-03-14T11:24:48;98175.44;;;2.56;77.70
71697;BME280;68167;59.120;37.898;2023-03-14T11:27:32;98161.09;;;2.42;77.57
71697;BME280;68167;59.120;37.898;2023-03-14T11:30:21;98194.19;;;2.65;77.71
71697;BME280;68167;59.120;37.898;2023-03-14T11:33:25;98188.13;;;2.64;77.62
71697;BME280;68167;59.120;37.898;2023-03-14T11:36:11;98141.78;;;2.31;77.86
71697;BME280;68167;59.120;37.898;2023-03-14T11:38:44;98203.34;;;2.62;77.79
71697;BME280;68167;59.120;37.898;2023-03-14T11:41:36;98206.03;;;2.68;77.85
71697;BME280;68167;59.120;37.898;2023-03-14T11:44:30;98192.91;;;2.68;77.82
71697;BME280;68167;59.120;37.898;2023-03-14T11:47:12;98170.13;;;2.51;78.06
71697;BME280;68167;59.120;37.898;2023-03-14T11:49:52;98204.31;;;2.78;77.91
71697;BME280;68167;59.120;37.898;2023-03-14T11:52:25;98207.69;;;2.74;77.82
71697;BME280;68167;59.120;37.898;2023-03-14T11:54:58;98223.50;;;2.79;78.04
71697;BME280;68167;59.120;37.898;2023-03-14T11:57:28;98218.25;;;2.79;77.96
71697;BME280;68167;59.120;37.898;2023-03-14T12:00:04;98187.09;;;2.65;77.77
71697;BME280;68167;59.120;37.898;2023-03-14T12:11:04;98214.19;;;3.15;78.18
71697;BME280;68167;59.120;37.898;2023-03-14T12:13:33;98207.66;;;3.17;78.21
71697;BME280;68167;59.120;37.898;2023-03-14T12:16:05;98203.94;;;3.13;78.39
71697;BME280;68167;59.120;37.898;2023-03-14T12:18:38;98231.69;;;3.31;78.22
71697;BME280;68167;59.120;37.898;2023-03-14T12:21:10;98175.69;;;3.04;78.00
71697;BME280;68167;59.120;37.898;2023-03-14T12:23:51;98224.16;;;3.40;77.92
71697;BME280;68167;59.120;37.898;2023-03-14T12:26:24;98222.91;;;3.47;78.31
71697;BME280;68167;59.120;37.898;2023-03-14T12:42:13;98202.84;;;3.68;77.72
71697;BME280;68167;59.120;37.898;2023-03-14T12:44:50;98170.31;;;3.47;77.88
71697;BME280;68167;59.120;37.898;2023-03-14T12:49:48;98145.03;;;3.46;77.83
71697;BME280;68167;59.120;37.898;2023-03-14T12:52:16;98206.88;;;3.81;77.69
71697;BME280;68167;59.120;37.898;2023-03-14T13:00:19;98165.38;;;3.56;77.51
71697;BME280;68167;59.120;37.898;2023-03-14T13:02:48;98207.13;;;3.79;77.47
71697;BME280;68167;59.120;37.898;2023-03-14T13:05:21;98205.06;;;3.81;77.39
71697;BME280;68167;59.120;37.898;2023-03-14T13:15:45;98204.97;;;3.71;77.70
71697;BME280;68167;59.120;37.898;2023-03-14T13:18:40;98153.19;;;3.45;77.79
71697;BME280;68167;59.120;37.898;2023-03-14T13:21:17;98209.78;;;3.79;77.65
71697;BME280;68167;59.120;37.898;2023-03-14T13:23:55;98200.84;;;3.80;78.07
71697;BME280;68167;59.120;37.898;2023-03-14T13:26:24;98206.09;;;3.80;77.95
71697;BME280;68167;59.120;37.898;2023-03-14T13:28:50;98184.72;;;3.72;77.83
71697;BME280;68167;59.120;37.898;2023-03-14T13:31:23;98195.00;;;3.73;78.30
71697;BME280;68167;59.120;37.898;2023-03-14T13:34:04;98205.59;;;3.83;78.16
71697;BME280;68167;59.120;37.898;2023-03-14T13:36:35;98194.50;;;3.76;78.43
71697;BME280;68167;59.120;37.898;2023-03-14T13:39:02;98156.69;;;3.55;78.36
71697;BME280;68167;59.120;37.898;2023-03-14T13:41:30;98196.06;;;3.77;78.01
71697;BME280;68167;59.120;37.898;2023-03-14T13:44:02;98171.97;;;3.58;78.27
71697;BME280;68167;59.120;37.898;2023-03-14T13:46:30;98142.47;;;3.51;78.35
71697;BME280;68167;59.120;37.898;2023-03-14T13:49:03;98152.03;;;3.62;78.30
71697;BME280;68167;59.120;37.898;2023-03-14T13:51:31;98148.09;;;3.65;78.64
71697;BME280;68167;59.120;37.898;2023-03-14T13:54:01;98137.25;;;3.56;78.43
71697;BME280;68167;59.120;37.898;2023-03-14T13:56:31;98180.06;;;3.84;78.68
71697;BME280;68167;59.120;37.898;2023-03-14T13:58:58;98169.00;;;3.82;78.16
71697;BME280;68167;59.120;37.898;2023-03-14T14:01:33;98147.03;;;3.66;78.52
71697;BME280;68167;59.120;37.898;2023-03-14T14:04:15;98199.56;;;3.88;78.50
71697;BME280;68167;59.120;37.898;2023-03-14T14:06:47;98201.91;;;3.84;78.55
71697;BME280;68167;59.120;37.898;2023-03-14T14:09:17;98143.47;;;3.45;78.71
71697;BME280;68167;59.120;37.898;2023-03-14T14:14:36;98174.59;;;3.58;78.69
71697;BME280;68167;59.120;37.898;2023-03-14T14:17:08;98162.41;;;3.47;78.40
71697;BME280;68167;59.120;37.898;2023-03-14T14:19:36;98165.69;;;3.59;78.76